Time;durP1;ratioP1;P1;durP2;ratioP2;P2;SDS_P1;SDS_P2;PMS_P1;PMS_P2;Temp;Humidity;BMP_temperature;BMP_pressure;BME280_temperature;BME280_humidity;BME280_pressure;Samples;Min_cycle;Max_cycle;Signal;HPM_P1;HPM_P2
2021/09/10 00:01:12;;;;;;;27.27;24.97;;;21.10;99.90;;;;;;5051470;28;20939;-77
2021/09/10 00:03:41;;;;;;;25.63;23.43;;;21.10;99.90;;;;;;5053422;28;20478;-77
2021/09/10 00:06:09;;;;;;;25.27;23.10;;;21.10;99.90;;;;;;5052711;28;20437;-77
2021/09/10 00:08:38;;;;;;;25.70;23.30;;;21.10;99.90;;;;;;5051780;28;20785;-77
2021/09/10 00:11:06;;;;;;;27.88;25.17;;;21.10;99.90;;;;;;5052619;28;20933;-77
2021/09/10 00:13:36;;;;;;;27.50;24.97;;;21.10;99.90;;;;;;5051535;28;20220;-77
2021/09/10 00:16:05;;;;;;;26.37;23.93;;;21.10;99.90;;;;;;5052972;28;20446;-77
2021/09/10 00:18:33;;;;;;;28.52;26.02;;;21.10;99.90;;;;;;5055787;28;20526;-76
2021/09/10 00:21:02;;;;;;;26.67;24.37;;;21.10;99.90;;;;;;5056426;28;20195;-77
2021/09/10 00:23:30;;;;;;;27.10;24.80;;;21.10;99.90;;;;;;5040695;28;20453;-77
2021/09/10 00:26:00;;;;;;;26.70;24.10;;;21.10;99.90;;;;;;5056263;28;20450;-77
2021/09/10 00:28:28;;;;;;;25.63;23.30;;;21.10;99.90;;;;;;5038275;28;20449;-77
2021/09/10 00:30:58;;;;;;;27.70;25.00;;;21.00;99.90;;;;;;5056414;28;20492;-77
2021/09/10 00:33:26;;;;;;;27.80;25.20;;;21.10;99.90;;;;;;5056455;28;20449;-77
2021/09/10 00:35:55;;;;;;;29.43;26.83;;;21.00;99.90;;;;;;5038250;28;20452;-77
2021/09/10 00:38:24;;;;;;;29.77;27.17;;;21.00;99.90;;;;;;5056288;28;20442;-77
2021/09/10 00:40:52;;;;;;;28.45;25.75;;;21.00;99.90;;;;;;5037260;28;20456;-77
2021/09/10 00:43:21;;;;;;;31.63;28.63;;;21.10;99.90;;;;;;5019675;28;20203;-76
2021/09/10 00:45:49;;;;;;;28.73;26.30;;;21.10;99.90;;;;;;5018704;28;20462;-77
2021/09/10 00:48:20;;;;;;;32.30;29.40;;;21.00;99.90;;;;;;5016945;28;20445;-77
2021/09/10 00:50:49;;;;;;;33.27;30.10;;;21.10;99.90;;;;;;5018137;28;20196;-77
2021/09/10 00:53:18;;;;;;;35.17;31.77;;;21.10;99.90;;;;;;5018023;28;20516;-77
2021/09/10 00:55:47;;;;;;;31.37;28.60;;;21.10;99.90;;;;;;5038936;28;20564;-77
2021/09/10 00:58:16;;;;;;;33.60;30.40;;;21.00;99.90;;;;;;5055998;28;20896;-77
2021/09/10 01:00:45;;;;;;;32.40;29.40;;;21.00;99.90;;;;;;5054404;28;20480;-77
2021/09/10 01:03:14;;;;;;;35.40;30.83;;;21.00;99.90;;;;;;5050092;28;20465;-77
2021/09/10 01:05:44;;;;;;;34.63;31.23;;;20.90;99.90;;;;;;5037814;28;20456;-76
2021/09/10 01:08:14;;;;;;;35.00;31.70;;;20.90;99.90;;;;;;5055765;28;20422;-77
2021/09/10 01:10:43;;;;;;;38.60;35.20;;;20.90;99.90;;;;;;5054384;28;20447;-77
2021/09/10 01:13:12;;;;;;;38.07;34.50;;;21.00;99.90;;;;;;5053444;28;20493;-77
2021/09/10 01:15:41;;;;;;;40.60;36.73;;;21.00;99.90;;;;;;5043559;28;20533;-77
2021/09/10 01:18:09;;;;;;;41.80;38.00;;;20.90;99.90;;;;;;5055152;28;20473;-77
2021/09/10 01:20:37;;;;;;;44.40;40.10;;;20.90;99.90;;;;;;5055800;28;20772;-77
2021/09/10 01:23:07;;;;;;;44.90;40.10;;;20.90;99.90;;;;;;5053944;28;20446;-77
2021/09/10 01:25:37;;;;;;;41.63;37.67;;;20.80;99.90;;;;;;5053916;28;20469;-77
2021/09/10 01:28:05;;;;;;;49.10;44.27;;;20.80;99.90;;;;;;5054794;28;20473;-77
2021/09/10 01:30:36;;;;;;;49.90;45.20;;;20.80;99.90;;;;;;5050201;28;20450;-76
2021/09/10 01:33:07;;;;;;;46.23;41.93;;;20.80;99.90;;;;;;5045927;28;20966;-77
2021/09/10 01:35:35;;;;;;;48.43;43.73;;;20.80;99.90;;;;;;5055372;28;20470;-77
2021/09/10 01:38:04;;;;;;;48.60;43.80;;;20.80;99.90;;;;;;5053814;28;20497;-77
2021/09/10 01:40:33;;;;;;;46.77;42.17;;;20.80;99.90;;;;;;5054074;28;20529;-77
2021/09/10 01:43:02;;;;;;;46.23;41.73;;;20.80;99.90;;;;;;5053715;28;20450;-77
2021/09/10 01:45:31;;;;;;;52.50;47.70;;;20.80;99.90;;;;;;5053798;28;20506;-77
2021/09/10 01:48:00;;;;;;;48.97;44.43;;;20.90;99.90;;;;;;5055365;28;20462;-77
2021/09/10 01:50:29;;;;;;;49.13;44.13;;;20.80;99.90;;;;;;5054532;28;20457;-76
2021/09/10 01:52:57;;;;;;;49.00;44.40;;;20.80;99.90;;;;;;5046308;28;20450;-77
2021/09/10 01:55:25;;;;;;;46.40;41.77;;;20.80;99.90;;;;;;5036987;28;20812;-76
2021/09/10 01:57:54;;;;;;;45.33;41.10;;;20.80;99.90;;;;;;5036659;28;20474;-77
2021/09/10 02:00:23;;;;;;;45.97;41.53;;;20.80;99.90;;;;;;5036586;28;20442;-77
2021/09/10 02:02:52;;;;;;;45.20;40.83;;;20.80;99.90;;;;;;5054308;28;20468;-77
2021/09/10 02:05:20;;;;;;;45.53;41.40;;;20.80;99.90;;;;;;5034737;28;20472;-76
2021/09/10 02:07:48;;;;;;;44.58;40.28;;;20.80;99.90;;;;;;5054026;28;20439;-76
2021/09/10 02:10:18;;;;;;;45.60;41.17;;;20.80;99.90;;;;;;5054620;28;20210;-76
2021/09/10 02:12:46;;;;;;;42.83;38.57;;;20.80;99.90;;;;;;5053226;28;20477;-77
2021/09/10 02:15:15;;;;;;;46.05;41.85;;;20.80;99.90;;;;;;5052263;28;20444;-77
2021/09/10 02:17:44;;;;;;;43.73;39.43;;;20.80;99.90;;;;;;5042282;28;20215;-76
2021/09/10 02:20:13;;;;;;;41.63;37.80;;;20.80;99.90;;;;;;5036228;28;20446;-76
2021/09/10 02:22:44;;;;;;;41.47;37.47;;;20.80;99.90;;;;;;5046445;28;20462;-76
2021/09/10 02:25:12;;;;;;;43.00;39.00;;;20.80;99.90;;;;;;5036091;28;20469;-76
2021/09/10 02:27:40;;;;;;;43.70;39.57;;;20.80;99.90;;;;;;5052693;28;20450;-77
2021/09/10 02:30:09;;;;;;;42.77;38.63;;;20.80;99.90;;;;;;5054373;28;20515;-77
2021/09/10 02:32:38;;;;;;;41.27;37.33;;;20.70;99.90;;;;;;5036037;28;20500;-77
2021/09/10 02:35:08;;;;;;;42.10;38.20;;;20.70;99.90;;;;;;5053989;28;20473;-77
2021/09/10 02:37:36;;;;;;;44.80;40.60;;;20.70;99.90;;;;;;5031482;28;20499;-76
2021/09/10 02:40:06;;;;;;;41.97;38.07;;;20.70;99.90;;;;;;5015576;28;20254;-76
2021/09/10 02:42:35;;;;;;;40.23;36.50;;;20.70;99.90;;;;;;5028947;28;20500;-76
2021/09/10 02:45:04;;;;;;;43.10;39.00;;;20.70;99.90;;;;;;5053101;28;20525;-76
2021/09/10 02:47:32;;;;;;;41.97;37.90;;;20.80;99.90;;;;;;5035738;28;20244;-76
2021/09/10 02:50:00;;;;;;;42.03;38.10;;;20.80;99.90;;;;;;5035602;28;20951;-77
2021/09/10 02:52:30;;;;;;;43.97;39.67;;;20.70;99.90;;;;;;5038982;28;20437;-76
2021/09/10 02:54:58;;;;;;;44.77;40.33;;;20.70;99.90;;;;;;5035549;28;20557;-76
2021/09/10 02:57:27;;;;;;;42.90;38.90;;;20.70;99.90;;;;;;5035547;28;20450;-76
2021/09/10 02:59:56;;;;;;;45.43;41.00;;;20.60;99.90;;;;;;5035518;28;20453;-76
2021/09/10 03:02:25;;;;;;;45.77;41.47;;;20.60;99.90;;;;;;5035486;28;20488;-77
2021/09/10 03:04:54;;;;;;;44.93;40.63;;;20.60;99.90;;;;;;5053297;28;20516;-76
2021/09/10 03:07:23;;;;;;;46.58;42.20;;;20.60;99.90;;;;;;5052696;28;20436;-76
2021/09/10 03:09:52;;;;;;;44.60;40.23;;;20.60;99.90;;;;;;5052223;28;20261;-76
2021/09/10 03:12:21;;;;;;;42.80;38.70;;;20.60;99.90;;;;;;5052116;28;20450;-76
2021/09/10 03:14:49;;;;;;;46.92;42.58;;;20.60;99.90;;;;;;5051174;28;20494;-76
2021/09/10 03:17:17;;;;;;;46.80;42.13;;;20.60;99.90;;;;;;5053717;28;20187;-76
2021/09/10 03:19:46;;;;;;;44.13;39.80;;;20.60;99.90;;;;;;5053166;28;20466;-77
2021/09/10 03:22:14;;;;;;;43.10;38.97;;;20.60;99.90;;;;;;5051850;28;20484;-76
2021/09/10 03:24:42;;;;;;;43.30;39.30;;;20.60;99.90;;;;;;5053293;28;20951;-76
2021/09/10 03:27:13;;;;;;;44.60;40.43;;;20.50;99.90;;;;;;5051695;28;20454;-77
2021/09/10 03:29:41;;;;;;;40.97;37.00;;;20.50;99.90;;;;;;5051737;28;20446;-77
2021/09/10 03:32:10;;;;;;;45.27;40.57;;;20.50;99.90;;;;;;5053129;28;20438;-76
2021/09/10 03:34:38;;;;;;;42.73;38.60;;;20.50;99.90;;;;;;5052926;28;20564;-76
2021/09/10 03:37:07;;;;;;;42.13;38.08;;;20.50;99.90;;;;;;5052440;28;20442;-76
2021/09/10 03:39:35;;;;;;;38.60;34.73;;;20.50;99.90;;;;;;5051672;28;20242;-76
2021/09/10 03:42:04;;;;;;;38.57;34.70;;;20.50;99.90;;;;;;5052011;28;20446;-77
2021/09/10 03:44:34;;;;;;;37.30;33.80;;;20.50;99.90;;;;;;5051856;28;20438;-76
2021/09/10 03:47:04;;;;;;;33.40;30.10;;;20.50;99.90;;;;;;5052328;28;20233;-77
2021/09/10 03:49:33;;;;;;;32.43;29.30;;;20.50;99.90;;;;;;5051779;28;20521;-77
2021/09/10 03:52:02;;;;;;;31.00;28.20;;;20.50;99.90;;;;;;5044191;28;21027;-77
2021/09/10 03:54:30;;;;;;;29.07;26.17;;;20.40;99.90;;;;;;5056819;28;20473;-75
2021/09/10 03:56:59;;;;;;;30.50;27.30;;;20.40;99.90;;;;;;5056870;28;20473;-77
2021/09/10 03:59:27;;;;;;;30.67;27.87;;;20.40;99.90;;;;;;5055528;28;20470;-76
2021/09/10 04:01:58;;;;;;;30.33;27.33;;;20.40;99.90;;;;;;5057206;28;20860;-77
2021/09/10 04:04:27;;;;;;;31.57;28.40;;;20.30;99.90;;;;;;5056805;28;20560;-76
2021/09/10 04:06:56;;;;;;;31.98;28.88;;;20.30;99.90;;;;;;5055047;28;20805;-76
2021/09/10 04:09:25;;;;;;;35.70;32.10;;;20.40;99.90;;;;;;5056812;28;20188;-76
2021/09/10 04:11:55;;;;;;;31.67;28.53;;;20.40;99.90;;;;;;5038869;28;20473;-76
2021/09/10 04:14:23;;;;;;;36.78;33.22;;;20.30;99.90;;;;;;5037788;28;20444;-76
2021/09/10 04:16:52;;;;;;;36.53;32.80;;;20.40;99.90;;;;;;5038275;28;20199;-76
2021/09/10 04:19:22;;;;;;;36.10;32.57;;;20.40;99.90;;;;;;5056672;28;20470;-76
2021/09/10 04:21:50;;;;;;;35.27;31.97;;;20.40;99.90;;;;;;5056592;28;20453;-76
2021/09/10 04:24:18;;;;;;;37.60;33.87;;;20.30;99.90;;;;;;5056587;28;20559;-77
2021/09/10 04:26:47;;;;;;;35.97;32.23;;;20.30;99.90;;;;;;5038788;28;20450;-76
2021/09/10 04:29:15;;;;;;;36.50;33.07;;;20.30;99.90;;;;;;5054733;28;20492;-77
2021/09/10 04:31:43;;;;;;;36.63;33.03;;;20.20;99.90;;;;;;5023811;28;20439;-77
2021/09/10 04:34:11;;;;;;;38.97;34.93;;;20.20;99.90;;;;;;5018386;28;20567;-77
2021/09/10 04:36:41;;;;;;;40.05;36.10;;;20.20;99.90;;;;;;5038152;28;20791;-77
2021/09/10 04:39:10;;;;;;;37.60;33.97;;;20.20;99.90;;;;;;5022787;28;20238;-78
2021/09/10 04:41:38;;;;;;;39.03;35.13;;;20.20;99.90;;;;;;5043687;28;20446;-77
2021/09/10 04:44:06;;;;;;;40.23;36.23;;;20.20;99.90;;;;;;5043097;28;20936;-77
2021/09/10 04:46:35;;;;;;;32.60;29.30;;;20.20;99.90;;;;;;5042834;28;20496;-78
2021/09/10 04:49:03;;;;;;;28.17;25.47;;;20.20;99.90;;;;;;5044103;28;20446;-78
2021/09/10 04:51:32;;;;;;;29.87;26.83;;;20.20;99.90;;;;;;5062196;28;20445;-77
2021/09/10 04:54:01;;;;;;;28.23;25.47;;;20.10;99.90;;;;;;5062195;28;20884;-78
2021/09/10 04:56:30;;;;;;;26.43;23.70;;;20.10;99.90;;;;;;5062694;28;20862;-78
2021/09/10 04:59:03;;;;;;;26.93;24.53;;;20.10;99.90;;;;;;5058121;28;20468;-77
2021/09/10 05:01:32;;;;;;;28.13;25.33;;;20.10;99.90;;;;;;5035733;28;20458;-78
2021/09/10 05:04:01;;;;;;;28.67;25.73;;;20.00;99.90;;;;;;5039815;28;20470;-76
2021/09/10 05:06:29;;;;;;;27.02;24.52;;;20.00;99.90;;;;;;5049500;28;20812;-76
2021/09/10 05:08:57;;;;;;;26.70;24.20;;;20.00;99.90;;;;;;5055547;28;20226;-77
2021/09/10 05:11:27;;;;;;;28.43;25.67;;;20.00;99.90;;;;;;5052634;28;20446;-76
2021/09/10 05:13:55;;;;;;;29.77;26.90;;;20.00;99.90;;;;;;5037188;28;21038;-77
2021/09/10 05:16:24;;;;;;;28.43;25.73;;;20.00;99.90;;;;;;5037595;28;20200;-77
2021/09/10 05:18:52;;;;;;;28.67;25.90;;;20.00;99.90;;;;;;5037771;28;20568;-77
2021/09/10 05:21:20;;;;;;;27.43;24.63;;;20.00;99.90;;;;;;5037583;28;20434;-77
2021/09/10 05:23:48;;;;;;;27.00;24.33;;;19.90;99.90;;;;;;5037601;28;20922;-76
2021/09/10 05:26:16;;;;;;;28.77;26.00;;;19.90;99.90;;;;;;5037488;28;20561;-76
2021/09/10 05:28:46;;;;;;;28.47;25.70;;;19.90;99.90;;;;;;5037488;28;20500;-77
2021/09/10 05:31:14;;;;;;;27.20;24.57;;;19.90;99.90;;;;;;5037744;28;20450;-78
2021/09/10 05:33:43;;;;;;;26.43;24.00;;;19.90;99.90;;;;;;5055679;28;20466;-78
2021/09/10 05:36:11;;;;;;;29.20;26.50;;;19.90;99.90;;;;;;5056041;28;20503;-78
2021/09/10 05:38:42;;;;;;;31.05;28.05;;;19.80;99.90;;;;;;5036397;28;21041;-78
2021/09/10 05:41:10;;;;;;;28.83;26.03;;;20.00;99.90;;;;;;5040325;28;20195;-78
2021/09/10 05:43:38;;;;;;;29.45;26.65;;;20.00;99.90;;;;;;5058680;28;20532;-78
2021/09/10 05:46:08;;;;;;;30.93;27.97;;;20.00;99.90;;;;;;5057025;28;20226;-78
2021/09/10 05:48:36;;;;;;;31.23;28.33;;;20.00;99.90;;;;;;5039070;28;20495;-77
2021/09/10 05:51:06;;;;;;;23.47;21.10;;;20.00;99.90;;;;;;5037044;28;20431;-77
2021/09/10 05:53:34;;;;;;;29.10;26.30;;;19.90;99.90;;;;;;5036770;28;20473;-77
2021/09/10 05:56:05;;;;;;;36.43;32.53;;;19.90;99.90;;;;;;5037287;28;20458;-77
2021/09/10 05:58:34;;;;;;;40.07;36.03;;;19.90;99.90;;;;;;5037259;28;20447;-77
2021/09/10 06:01:04;;;;;;;36.53;32.93;;;19.80;99.90;;;;;;5038539;28;20496;-77
2021/09/10 06:03:34;;;;;;;38.50;34.50;;;19.90;99.90;;;;;;5059067;28;20454;-77
2021/09/10 06:06:03;;;;;;;41.00;36.83;;;19.90;99.90;;;;;;5043345;28;20854;-78
2021/09/10 06:08:32;;;;;;;43.75;39.10;;;19.80;99.90;;;;;;5047178;28;20497;-80
2021/09/10 06:11:00;;;;;;;43.73;38.60;;;19.90;99.90;;;;;;5055137;28;20191;-80
2021/09/10 06:13:28;;;;;;;38.93;33.27;;;19.90;99.90;;;;;;5048151;28;20454;-80
2021/09/10 06:15:57;;;;;;;31.43;27.80;;;19.90;99.90;;;;;;5058581;28;20449;-78
2021/09/10 06:18:26;;;;;;;27.87;25.07;;;19.80;99.90;;;;;;5042991;28;20525;-81
2021/09/10 06:20:56;;;;;;;22.87;20.20;;;19.80;99.90;;;;;;5059833;28;20469;-78
2021/09/10 06:23:24;;;;;;;15.60;14.10;;;19.70;99.90;;;;;;5056946;28;20461;-78
2021/09/10 06:25:53;;;;;;;15.77;14.17;;;19.70;99.90;;;;;;5043134;28;20481;-79
2021/09/10 06:28:23;;;;;;;9.80;8.87;;;19.60;99.90;;;;;;5040524;28;20460;-78
2021/09/10 06:30:52;;;;;;;10.43;9.47;;;19.60;99.90;;;;;;5038010;28;20544;-77
2021/09/10 06:33:20;;;;;;;12.30;11.20;;;19.60;99.90;;;;;;5037299;28;20446;-77
2021/09/10 06:35:48;;;;;;;10.83;9.90;;;19.60;99.90;;;;;;5037348;28;20446;-79
2021/09/10 06:38:18;;;;;;;9.75;8.85;;;19.50;99.90;;;;;;5055320;28;21006;-77
2021/09/10 06:40:46;;;;;;;7.90;7.10;;;19.60;99.90;;;;;;5037111;28;20326;-77
2021/09/10 06:43:14;;;;;;;9.60;8.23;;;19.60;99.90;;;;;;5054287;28;20441;-77
2021/09/10 06:45:44;;;;;;;9.75;8.85;;;19.50;99.90;;;;;;5053286;28;20446;-77
2021/09/10 06:48:12;;;;;;;9.30;8.50;;;19.60;99.90;;;;;;5054692;28;20244;-77
2021/09/10 06:50:44;;;;;;;8.77;7.97;;;19.60;99.90;;;;;;5037264;28;20434;-77
2021/09/10 06:53:12;;;;;;;8.27;7.43;;;19.60;99.90;;;;;;5036478;28;20446;-77
2021/09/10 06:55:41;;;;;;;9.90;9.10;;;19.50;99.90;;;;;;5036778;28;20924;-77
2021/09/10 06:58:09;;;;;;;10.23;9.17;;;19.50;99.90;;;;;;5036344;28;20456;-77
2021/09/10 07:00:37;;;;;;;8.97;8.07;;;19.50;99.90;;;;;;5036340;28;20966;-78
2021/09/10 07:03:06;;;;;;;10.70;9.70;;;19.40;99.90;;;;;;5036824;28;20454;-77
2021/09/10 07:05:34;;;;;;;8.90;8.10;;;19.40;99.90;;;;;;5055454;28;20460;-77
2021/09/10 07:08:05;;;;;;;8.57;7.78;;;19.40;99.90;;;;;;5037092;28;20466;-78
2021/09/10 07:10:33;;;;;;;6.77;6.17;;;19.40;99.90;;;;;;5037559;28;20192;-78
2021/09/10 07:13:03;;;;;;;7.47;6.50;;;19.40;99.90;;;;;;5037511;28;20450;-77
2021/09/10 07:15:31;;;;;;;8.13;7.32;;;19.40;99.90;;;;;;5036335;28;21003;-77
2021/09/10 07:18:00;;;;;;;8.30;7.60;;;19.40;99.90;;;;;;5035876;28;20191;-77
2021/09/10 07:20:28;;;;;;;8.30;7.60;;;19.40;99.90;;;;;;5035850;28;20466;-77
2021/09/10 07:22:56;;;;;;;8.63;7.67;;;19.40;99.90;;;;;;5054074;28;20438;-77
2021/09/10 07:25:24;;;;;;;7.67;6.97;;;19.40;99.90;;;;;;5035539;28;20585;-77
2021/09/10 07:27:53;;;;;;;7.30;6.70;;;19.30;99.90;;;;;;5035988;28;20973;-77
2021/09/10 07:30:22;;;;;;;7.20;6.60;;;19.30;99.90;;;;;;5054435;28;20439;-77
2021/09/10 07:32:50;;;;;;;6.53;5.93;;;19.30;99.90;;;;;;5036707;28;20818;-77
2021/09/10 07:35:18;;;;;;;7.17;6.47;;;19.30;99.90;;;;;;5036359;28;20510;-77
2021/09/10 07:37:48;;;;;;;6.90;6.30;;;19.30;99.90;;;;;;5035725;28;20985;-77
2021/09/10 07:40:17;;;;;;;6.60;6.00;;;19.30;99.90;;;;;;5052697;28;20588;-77
2021/09/10 07:42:46;;;;;;;7.60;7.00;;;19.30;99.90;;;;;;5037025;28;20550;-78
2021/09/10 07:45:14;;;;;;;7.50;6.90;;;19.20;99.90;;;;;;5040440;28;20447;-78
2021/09/10 07:47:44;;;;;;;7.80;7.10;;;19.30;99.90;;;;;;5040132;28;20286;-78
2021/09/10 07:50:12;;;;;;;8.57;7.87;;;19.30;99.90;;;;;;5036639;28;20479;-78
2021/09/10 07:52:40;;;;;;;13.80;12.50;;;19.30;99.90;;;;;;5036696;28;20468;-78
2021/09/10 07:55:11;;;;;;;9.00;8.10;;;19.30;99.90;;;;;;5037422;28;20469;-77
2021/09/10 07:57:39;;;;;;;9.27;8.37;;;19.20;99.90;;;;;;5037247;28;20450;-78
2021/09/10 08:00:08;;;;;;;9.60;8.80;;;19.30;99.90;;;;;;5037820;28;20532;-78
2021/09/10 08:02:37;;;;;;;12.30;10.47;;;19.30;99.90;;;;;;5038906;28;20667;-77
2021/09/10 08:05:09;;;;;;;10.70;9.80;;;19.30;99.90;;;;;;5039562;28;20481;-78
2021/09/10 08:07:37;;;;;;;11.63;10.63;;;19.30;99.90;;;;;;5040505;28;20496;-78
2021/09/10 08:10:08;;;;;;;14.27;12.93;;;19.30;99.90;;;;;;5040775;28;20452;-78
2021/09/10 08:12:39;;;;;;;16.47;15.00;;;19.40;99.90;;;;;;5060030;28;20183;-78
2021/09/10 08:15:08;;;;;;;17.60;16.07;;;19.40;99.90;;;;;;5061850;28;20469;-78
2021/09/10 08:17:36;;;;;;;17.17;15.53;;;19.40;99.90;;;;;;5043171;28;21021;-78
2021/09/10 08:20:06;;;;;;;19.03;17.43;;;19.40;99.90;;;;;;5042525;28;20493;-77
2021/09/10 08:22:37;;;;;;;19.70;18.00;;;19.40;99.90;;;;;;5059076;28;20552;-78
2021/09/10 08:25:07;;;;;;;19.57;17.87;;;19.40;99.90;;;;;;5058452;28;20553;-78
2021/09/10 08:27:36;;;;;;;20.80;18.90;;;19.40;99.90;;;;;;5040903;28;20815;-78
2021/09/10 08:30:05;;;;;;;19.57;17.67;;;19.40;99.90;;;;;;5060691;28;20442;-79
2021/09/10 08:32:34;;;;;;;19.80;17.80;;;19.40;99.90;;;;;;5042670;28;20454;-78
2021/09/10 08:35:02;;;;;;;19.90;17.97;;;19.40;99.90;;;;;;5060062;28;20515;-78
2021/09/10 08:37:31;;;;;;;20.60;18.60;;;19.40;99.90;;;;;;5043693;28;20464;-78
2021/09/10 08:40:02;;;;;;;21.60;19.50;;;19.50;99.90;;;;;;5046249;28;20514;-78
2021/09/10 08:42:30;;;;;;;21.80;19.67;;;19.50;99.90;;;;;;5066058;28;20204;-78
2021/09/10 08:44:59;;;;;;;20.47;18.57;;;19.60;99.90;;;;;;5046662;28;20866;-78
2021/09/10 08:47:28;;;;;;;20.73;18.63;;;19.60;99.90;;;;;;5045618;28;20509;-79
2021/09/10 08:49:56;;;;;;;21.00;19.00;;;19.70;99.90;;;;;;5046380;28;20195;-78
2021/09/10 08:52:24;;;;;;;19.10;17.40;;;19.70;99.90;;;;;;5046378;28;20485;-79
2021/09/10 08:54:53;;;;;;;19.23;17.40;;;19.70;99.90;;;;;;5047151;28;20480;-78
2021/09/10 08:57:23;;;;;;;20.70;18.70;;;19.70;99.90;;;;;;5047762;28;20453;-79
2021/09/10 09:00:03;;;;;;;21.07;18.87;;;19.80;99.90;;;;;;5048039;28;20486;-79
2021/09/10 09:02:32;;;;;;;21.73;19.77;;;19.80;99.90;;;;;;5066073;28;20480;-78
2021/09/10 09:05:01;;;;;;;20.33;18.53;;;19.80;99.90;;;;;;5065462;28;20529;-78
2021/09/10 09:07:29;;;;;;;23.60;21.50;;;19.80;99.90;;;;;;5047286;28;20476;-79
2021/09/10 09:09:58;;;;;;;23.83;21.63;;;19.80;99.90;;;;;;5045154;28;20458;-78
2021/09/10 09:12:30;;;;;;;23.53;21.37;;;19.80;99.90;;;;;;5044912;28;20192;-78
2021/09/10 09:14:59;;;;;;;27.00;24.40;;;19.90;99.90;;;;;;5047030;28;20504;-78
2021/09/10 09:17:31;;;;;;;28.17;25.47;;;19.90;99.90;;;;;;5049427;28;20444;-79
2021/09/10 09:20:17;;;;;;;24.47;22.27;;;20.00;99.90;;;;;;5047593;28;20947;-79
2021/09/10 09:22:57;;;;;;;26.00;23.50;;;20.10;99.90;;;;;;5065310;28;20470;-79
2021/09/10 09:25:27;;;;;;;23.40;21.20;;;20.10;99.90;;;;;;5069040;28;20809;-79
2021/09/10 09:27:57;;;;;;;24.77;22.27;;;20.10;99.90;;;;;;5067365;28;20954;-79
2021/09/10 09:30:39;;;;;;;23.73;21.30;;;20.10;99.90;;;;;;5046644;28;20456;-79
2021/09/10 09:33:07;;;;;;;23.80;21.60;;;20.20;99.90;;;;;;5047065;28;20499;-79
2021/09/10 09:35:39;;;;;;;22.00;20.07;;;20.20;99.90;;;;;;5064500;28;20458;-79
2021/09/10 09:38:18;;;;;;;20.93;19.03;;;20.30;99.90;;;;;;5064004;28;20445;-78
2021/09/10 09:40:51;;;;;;;20.90;19.10;;;20.30;99.90;;;;;;5045591;28;20474;-79
2021/09/10 09:43:22;;;;;;;22.00;20.00;;;20.40;99.90;;;;;;5046122;28;20520;-79
2021/09/10 09:45:52;;;;;;;21.23;18.80;;;20.40;99.90;;;;;;5064185;28;20457;-79
2021/09/10 09:48:22;;;;;;;20.83;19.02;;;20.40;99.90;;;;;;5044680;28;20446;-79
2021/09/10 09:50:52;;;;;;;20.90;18.93;;;20.50;99.90;;;;;;5064077;28;20220;-79
2021/09/10 09:53:23;;;;;;;21.37;19.23;;;20.50;99.90;;;;;;5046213;28;20489;-78
2021/09/10 09:55:52;;;;;;;20.10;18.30;;;20.50;99.90;;;;;;5048311;28;20477;-79
2021/09/10 09:58:22;;;;;;;20.77;18.87;;;20.60;99.90;;;;;;5065975;28;20453;-79
2021/09/10 10:00:50;;;;;;;19.83;18.03;;;20.60;99.90;;;;;;5066177;28;20963;-79
2021/09/10 10:03:18;;;;;;;20.47;18.57;;;20.60;99.90;;;;;;5047680;28;20478;-78
2021/09/10 10:05:59;;;;;;;19.53;17.73;;;20.70;99.90;;;;;;5048210;28;20537;-79
2021/09/10 10:08:33;;;;;;;18.67;16.97;;;20.70;99.90;;;;;;5048474;28;20434;-79
2021/09/10 10:11:09;;;;;;;17.00;15.40;;;20.80;99.90;;;;;;5066738;28;20453;-79
2021/09/10 10:13:39;;;;;;;17.60;15.97;;;20.80;99.90;;;;;;5049935;28;20476;-79
2021/09/10 10:16:07;;;;;;;16.60;15.20;;;20.90;99.90;;;;;;5049412;28;20489;-79
2021/09/10 10:18:48;;;;;;;18.77;17.08;;;21.00;99.90;;;;;;5048324;28;20452;-79
2021/09/10 10:21:17;;;;;;;16.70;15.30;;;21.10;99.90;;;;;;5047738;28;20199;-79
2021/09/10 10:23:55;;;;;;;15.90;14.60;;;21.20;99.90;;;;;;5048455;28;20474;-79
2021/09/10 10:26:41;;;;;;;13.83;12.63;;;21.30;99.90;;;;;;5049132;28;20461;-78
2021/09/10 10:29:17;;;;;;;12.60;11.40;;;21.30;99.90;;;;;;5048881;28;20477;-79
2021/09/10 10:32:01;;;;;;;13.00;11.80;;;21.40;99.90;;;;;;5049363;28;20430;-79
2021/09/10 10:34:30;;;;;;;10.23;9.33;;;21.40;99.90;;;;;;5049388;28;20557;-79
2021/09/10 10:36:59;;;;;;;10.13;9.20;;;21.50;99.90;;;;;;5048803;28;20453;-79
2021/09/10 10:39:32;;;;;;;11.53;10.53;;;21.50;99.90;;;;;;5049220;28;20450;-79
2021/09/10 10:42:03;;;;;;;12.13;11.10;;;21.40;99.90;;;;;;5048577;28;20515;-79
2021/09/10 10:44:48;;;;;;;10.53;9.63;;;21.50;99.90;;;;;;5068005;28;20727;-79
2021/09/10 10:47:32;;;;;;;9.27;8.53;;;21.50;99.90;;;;;;5067723;28;20458;-79
2021/09/10 10:50:02;;;;;;;10.07;9.17;;;21.50;99.90;;;;;;5047508;28;20478;-79
2021/09/10 10:52:38;;;;;;;7.27;6.67;;;21.60;99.90;;;;;;5048266;28;20522;-79
2021/09/10 10:55:22;;;;;;;7.33;6.73;;;21.70;99.90;;;;;;5048694;28;20557;-79
2021/09/10 10:57:52;;;;;;;6.97;6.47;;;21.70;99.90;;;;;;5048010;28;20533;-79
2021/09/10 11:00:56;;;;;;;7.00;6.50;;;21.70;99.90;;;;;;5048012;28;20537;-79
2021/09/10 11:03:49;;;;;;;8.07;7.37;;;21.70;99.90;;;;;;5065877;28;20477;-79
2021/09/10 11:06:29;;;;;;;7.03;6.43;;;21.80;99.90;;;;;;5065740;28;20437;-79
2021/09/10 11:08:57;;;;;;;6.63;6.10;;;21.80;99.90;;;;;;5047330;28;20471;-79
2021/09/10 11:11:30;;;;;;;6.80;6.20;;;21.80;99.90;;;;;;5047898;28;20809;-79
2021/09/10 11:13:58;;;;;;;6.90;6.40;;;21.90;99.90;;;;;;5066117;28;20207;-79
2021/09/10 11:16:31;;;;;;;6.23;5.73;;;21.90;99.90;;;;;;5047638;28;20448;-79
2021/09/10 11:19:00;;;;;;;6.95;6.35;;;21.90;99.90;;;;;;5065406;28;20458;-79
2021/09/10 11:21:31;;;;;;;7.10;6.50;;;21.90;99.90;;;;;;5047585;28;20242;-79
2021/09/10 11:24:11;;;;;;;7.43;6.73;;;22.00;99.90;;;;;;5047710;28;20509;-79
2021/09/10 11:26:41;;;;;;;7.90;7.20;;;22.00;99.90;;;;;;5048259;28;20434;-79
2021/09/10 11:29:14;;;;;;;7.47;6.70;;;22.00;99.90;;;;;;5065662;28;20492;-79
2021/09/10 11:31:44;;;;;;;9.10;8.30;;;22.10;99.90;;;;;;5042732;28;20449;-78
2021/09/10 11:34:35;;;;;;;11.03;10.03;;;22.10;99.90;;;;;;5061420;28;20488;-78
2021/09/10 11:37:04;;;;;;;10.47;9.57;;;22.10;99.90;;;;;;5055651;28;20533;-78
2021/09/10 11:39:35;;;;;;;11.83;10.83;;;22.20;99.90;;;;;;5044629;28;20831;-79
2021/09/10 11:42:35;;;;;;;12.40;11.25;;;22.20;99.90;;;;;;5047383;28;20444;-79
2021/09/10 11:45:06;;;;;;;12.43;11.27;;;22.30;99.90;;;;;;5046702;28;20239;-79
2021/09/10 11:47:36;;;;;;;14.80;13.40;;;22.30;99.90;;;;;;5047147;28;20830;-79
2021/09/10 11:50:09;;;;;;;14.77;13.47;;;22.40;99.90;;;;;;5065169;28;20446;-79
2021/09/10 11:52:40;;;;;;;14.80;13.40;;;22.40;99.90;;;;;;5064983;28;20438;-79
2021/09/10 11:55:12;;;;;;;15.23;13.80;;;22.50;99.90;;;;;;5048734;28;20476;-79
2021/09/10 11:57:41;;;;;;;16.90;15.40;;;22.50;99.90;;;;;;5047997;28;20484;-79
2021/09/10 12:00:22;;;;;;;16.20;14.77;;;22.50;99.90;;;;;;5065174;28;20522;-79
2021/09/10 12:02:55;;;;;;;22.77;20.67;;;22.60;99.90;;;;;;5045890;28;20477;-79
2021/09/10 12:05:26;;;;;;;20.60;18.70;;;22.60;99.90;;;;;;5044800;28;20462;-78
2021/09/10 12:07:55;;;;;;;20.97;19.00;;;22.60;99.90;;;;;;5044434;28;20816;-79
2021/09/10 12:10:29;;;;;;;22.90;20.80;;;22.70;99.90;;;;;;5043978;28;20452;-79
2021/09/10 12:13:12;;;;;;;21.63;19.40;;;22.70;99.90;;;;;;5046399;28;20445;-79
2021/09/10 12:15:41;;;;;;;23.37;21.20;;;22.90;99.90;;;;;;5046077;28;21047;-79
2021/09/10 12:18:13;;;;;;;25.98;23.48;;;22.90;99.90;;;;;;5063588;28;20435;-79
2021/09/10 12:20:44;;;;;;;25.07;22.63;;;23.00;99.90;;;;;;5046424;28;20542;-78
2021/09/10 12:23:21;;;;;;;24.47;22.17;;;23.00;99.90;;;;;;5048038;28;20488;-79
2021/09/10 12:26:00;;;;;;;28.30;25.70;;;23.00;99.90;;;;;;5047014;28;20446;-78
2021/09/10 12:28:30;;;;;;;26.33;23.90;;;23.00;99.90;;;;;;5063849;28;20429;-79
2021/09/10 12:31:08;;;;;;;26.90;24.20;;;23.10;99.90;;;;;;5062681;28;20426;-79
2021/09/10 12:33:44;;;;;;;25.80;23.30;;;23.20;99.90;;;;;;5045530;28;20990;-78
2021/09/10 12:36:13;;;;;;;27.50;24.93;;;23.20;99.90;;;;;;5046523;28;20446;-79
2021/09/10 12:38:43;;;;;;;26.63;24.03;;;23.20;99.90;;;;;;5046780;28;20449;-79
2021/09/10 12:41:14;;;;;;;26.17;23.77;;;23.30;99.90;;;;;;5063505;28;20489;-79
2021/09/10 12:46:52;;;;;;;26.30;23.83;;;23.50;99.90;;;;;;5043461;28;20537;-79
2021/09/10 12:49:23;;;;;;;26.67;24.27;;;23.60;99.90;;;;;;5042451;28;20451;-78